Time;durP1;ratioP1;P1;durP2;ratioP2;P2;SDS_P1;SDS_P2;PMS_P1;PMS_P2;Temp;Humidity;BMP_temperature;BMP_pressure;BME280_temperature;BME280_humidity;BME280_pressure;Samples;Min_cycle;Max_cycle;Signal;HPM_P1;HPM_P2
2023/09/13 00:01:34;;;;;;;22.35;16.98;;;;;;;20.35;81.07;101259.81;7398551;19;20010;-65
2023/09/13 00:04:02;;;;;;;22.83;17.52;;;;;;;20.37;80.65;101255.94;7397428;19;20015;-65
2023/09/13 00:06:30;;;;;;;20.92;16.15;;;;;;;20.29;81.25;101255.09;7398763;19;20039;-65
2023/09/13 00:08:59;;;;;;;22.50;16.35;;;;;;;20.16;81.46;101256.41;7398151;19;20418;-65
2023/09/13 00:11:26;;;;;;;21.40;16.00;;;;;;;20.18;81.55;101257.09;7398080;19;20027;-65
2023/09/13 00:13:53;;;;;;;20.35;16.10;;;;;;;20.23;81.62;101253.91;7397648;19;20105;-66
2023/09/13 00:16:21;;;;;;;21.33;15.85;;;;;;;20.25;81.29;101257.25;7394990;19;20028;-66
2023/09/13 00:18:48;;;;;;;20.80;15.93;;;;;;;20.22;81.60;101252.19;7397795;19;20018;-66
2023/09/13 00:21:17;;;;;;;20.23;14.88;;;;;;;20.20;81.48;101244.31;7397786;19;20377;-66
2023/09/13 00:23:46;;;;;;;21.23;16.80;;;;;;;20.20;81.12;101244.31;7397649;19;20051;-66
2023/09/13 00:26:14;;;;;;;22.58;16.40;;;;;;;20.29;80.82;101236.25;7397717;19;20044;-66
2023/09/13 00:28:41;;;;;;;22.02;15.93;;;;;;;20.25;81.39;101241.13;7397717;19;20015;-66
2023/09/13 00:31:09;;;;;;;21.58;16.00;;;;;;;20.27;81.25;101239.13;7397956;19;20047;-66
2023/09/13 00:33:38;;;;;;;20.92;16.13;;;;;;;20.18;80.95;101240.94;7397545;19;20033;-64
2023/09/13 00:36:05;;;;;;;20.45;15.95;;;;;;;20.07;81.76;101233.19;7393085;19;20015;-64
2023/09/13 00:38:33;;;;;;;20.83;15.80;;;;;;;20.16;81.70;101240.25;7397213;19;20035;-64
2023/09/13 00:41:00;;;;;;;21.52;15.75;;;;;;;20.19;81.44;101236.41;7397153;19;20014;-64
2023/09/13 00:43:28;;;;;;;21.77;16.20;;;;;;;20.14;81.65;101238.72;7395912;19;20487;-64
2023/09/13 00:45:55;;;;;;;20.60;16.42;;;;;;;20.18;81.50;101243.66;7394169;19;20023;-64
2023/09/13 00:48:23;;;;;;;21.88;16.55;;;;;;;20.14;81.41;101239.56;7396865;19;20090;-65
2023/09/13 00:50:52;;;;;;;22.88;17.23;;;;;;;20.14;81.63;101239.56;7396723;19;20022;-64
2023/09/13 00:53:21;;;;;;;22.65;17.45;;;;;;;20.02;82.18;101245.41;7396825;19;20011;-64
2023/09/13 00:55:50;;;;;;;23.00;16.67;;;;;;;20.01;82.21;101251.81;7393959;19;20018;-66
2023/09/13 00:58:20;;;;;;;22.20;17.85;;;;;;;20.02;82.14;101250.78;7396475;19;20389;-65
2023/09/13 01:00:53;;;;;;;20.95;16.02;;;;;;;20.13;82.02;101251.34;7396475;19;20043;-67
2023/09/13 01:03:22;;;;;;;21.50;15.75;;;;;;;20.19;81.64;101257.94;7396236;19;20014;-67
2023/09/13 01:05:53;;;;;;;20.83;15.95;;;;;;;20.18;81.83;101256.22;7394090;19;20059;-67
2023/09/13 01:08:22;;;;;;;22.45;17.25;;;;;;;20.11;81.83;101250.66;7395941;19;20081;-65
2023/09/13 01:10:49;;;;;;;22.00;17.05;;;;;;;20.10;81.23;101251.66;7396094;19;20044;-65
2023/09/13 01:13:17;;;;;;;21.45;16.27;;;;;;;20.05;82.03;101247.78;7396636;19;20014;-64
2023/09/13 01:16:14;;;;;;;22.15;17.55;;;;;;;20.06;81.83;101252.16;7393414;19;20424;-64
2023/09/13 01:18:51;;;;;;;25.58;19.35;;;;;;;20.01;82.26;101257.19;7396040;19;20018;-64
2023/09/13 01:21:37;;;;;;;21.50;18.15;;;;;;;20.10;81.76;101259.72;7394599;19;20018;-64
2023/09/13 01:24:39;;;;;;;23.73;18.77;;;;;;;20.17;81.72;101254.53;7395274;19;20043;-64
2023/09/13 01:27:24;;;;;;;23.48;18.40;;;;;;;20.11;82.25;101258.75;7395576;19;20393;-63
2023/09/13 01:29:52;;;;;;;23.60;18.42;;;;;;;20.05;82.23;101262.06;7396212;19;20102;-65
2023/09/13 01:32:20;;;;;;;25.85;20.17;;;;;;;20.03;82.67;101253.31;7395498;19;20492;-61
2023/09/13 01:34:47;;;;;;;21.85;17.52;;;;;;;20.07;82.78;101256.50;7393396;19;20487;-61
2023/09/13 01:37:14;;;;;;;22.70;18.23;;;;;;;20.14;82.10;101254.88;7392049;19;20014;-63
2023/09/13 01:39:42;;;;;;;22.40;17.77;;;;;;;20.15;82.20;101261.94;7393790;19;20015;-67
2023/09/13 01:42:11;;;;;;;24.00;18.70;;;;;;;20.10;82.45;101254.34;7395359;19;20014;-67
2023/09/13 01:44:42;;;;;;;24.77;18.55;;;;;;;20.14;82.37;101258.38;7393182;19;20014;-67
2023/09/13 01:47:10;;;;;;;24.52;19.35;;;;;;;20.14;82.51;101255.69;7394988;19;20039;-67
2023/09/13 01:49:40;;;;;;;24.05;18.48;;;;;;;20.11;82.69;101252.50;7394780;19;20026;-68
2023/09/13 01:52:07;;;;;;;23.58;18.13;;;;;;;20.07;82.88;101260.06;7394402;19;20031;-68
2023/09/13 01:54:36;;;;;;;24.80;18.95;;;;;;;20.07;82.98;101248.44;7390729;19;20022;-67
2023/09/13 01:57:03;;;;;;;24.02;18.63;;;;;;;20.05;83.07;101256.69;7393416;19;20035;-66
2023/09/13 01:59:32;;;;;;;22.50;17.42;;;;;;;20.07;82.98;101253.81;7394499;19;20018;-66
2023/09/13 02:02:00;;;;;;;21.85;18.60;;;;;;;20.11;82.85;101249.81;7394271;19;20015;-65
2023/09/13 02:04:32;;;;;;;24.30;18.80;;;;;;;20.16;82.93;101253.72;7393151;19;20022;-65
2023/09/13 02:07:01;;;;;;;25.47;20.70;;;;;;;20.03;82.52;101253.31;7394391;19;20023;-65
2023/09/13 02:09:28;;;;;;;22.75;18.83;;;;;;;19.94;83.57;101252.44;7394704;19;20039;-65
2023/09/13 02:11:56;;;;;;;24.63;18.92;;;;;;;20.03;82.90;101252.47;7394159;19;20026;-66
2023/09/13 02:14:23;;;;;;;24.30;18.60;;;;;;;19.96;83.62;101253.13;7393101;19;20014;-66
2023/09/13 02:16:50;;;;;;;26.80;19.80;;;;;;;19.91;83.73;101247.38;7391764;19;20018;-66
2023/09/13 02:19:18;;;;;;;23.70;19.00;;;;;;;19.89;83.42;101252.09;7393798;19;20025;-66
2023/09/13 02:21:46;;;;;;;24.02;19.33;;;;;;;19.98;83.70;101249.44;7394214;19;20014;-66
2023/09/13 02:24:13;;;;;;;25.40;20.10;;;;;;;20.02;83.47;101246.25;7393113;19;20019;-66
2023/09/13 02:26:41;;;;;;;24.40;19.00;;;;;;;20.01;83.39;101241.88;7392517;19;20022;-66
2023/09/13 02:29:08;;;;;;;27.33;21.15;;;;;;;20.06;83.43;101244.91;7394122;19;20035;-66
2023/09/13 02:31:36;;;;;;;28.48;21.50;;;;;;;20.06;83.96;101247.59;7393562;19;20022;-66
2023/09/13 02:34:04;;;;;;;32.78;24.00;;;;;;;20.09;84.02;101249.13;7392873;19;20033;-66
2023/09/13 02:36:31;;;;;;;33.70;25.48;;;;;;;20.01;84.14;101260.72;7391717;19;20025;-66
2023/09/13 02:38:59;;;;;;;30.48;23.90;;;;;;;20.06;84.56;101258.38;7393343;19;20018;-66
2023/09/13 02:41:27;;;;;;;32.45;24.48;;;;;;;20.10;84.25;101257.03;7393531;19;20034;-66
2023/09/13 02:43:54;;;;;;;33.95;24.85;;;;;;;20.12;84.41;101256.88;7392192;19;20018;-66
2023/09/13 02:46:22;;;;;;;31.75;24.88;;;;;;;20.15;84.50;101260.09;7392691;19;20025;-65
2023/09/13 02:48:49;;;;;;;31.08;22.95;;;;;;;20.20;84.76;101271.19;7389797;19;20018;-65
2023/09/13 02:51:17;;;;;;;30.75;25.10;;;;;;;20.12;84.63;101267.66;7389592;19;20018;-66
2023/09/13 02:53:45;;;;;;;28.38;21.95;;;;;;;20.09;85.10;101267.97;7387195;19;20026;-66
2023/09/13 02:56:13;;;;;;;28.23;21.23;;;;;;;20.11;85.13;101264.13;7389953;19;20479;-65
2023/09/13 02:58:41;;;;;;;31.52;25.02;;;;;;;20.15;85.37;101260.09;7388949;19;20074;-65
2023/09/13 03:01:10;;;;;;;31.40;24.33;;;;;;;20.24;84.80;101271.72;7391816;19;20820;-65
2023/09/13 03:03:38;;;;;;;33.33;25.73;;;;;;;20.25;85.16;101270.69;7391021;19;20491;-65
2023/09/13 03:06:15;;;;;;;37.45;28.00;;;;;;;20.20;85.30;101260.44;7390533;19;20022;-66
2023/09/13 03:08:43;;;;;;;37.50;29.13;;;;;;;20.17;85.15;101263.44;7392489;19;20021;-66
2023/09/13 03:11:14;;;;;;;41.15;30.13;;;;;;;20.25;84.54;101262.63;7392406;19;20026;-67
2023/09/13 03:13:42;;;;;;;38.42;28.83;;;;;;;20.28;84.92;101262.31;7390931;19;20040;-67
2023/09/13 03:16:15;;;;;;;37.45;28.45;;;;;;;20.27;84.80;101265.19;7390468;19;20543;-67
2023/09/13 03:18:43;;;;;;;37.58;28.23;;;;;;;20.26;85.21;101261.66;7390639;19;20026;-67
2023/09/13 03:21:12;;;;;;;40.75;29.80;;;;;;;20.28;85.40;101258.78;7392343;19;20015;-67
2023/09/13 03:23:42;;;;;;;35.63;27.50;;;;;;;20.22;85.40;101265.66;7391612;19;20022;-67
2023/09/13 03:26:21;;;;;;;39.95;29.50;;;;;;;20.26;85.39;101266.16;7391367;19;20014;-68
2023/09/13 03:28:53;;;;;;;26.15;19.02;;;;;;;20.23;85.05;101267.34;7391720;19;20018;-68
2023/09/13 03:31:22;;;;;;;21.45;16.10;;;;;;;20.13;84.80;101264.78;7390347;19;20026;-67
2023/09/13 03:33:52;;;;;;;16.38;11.43;;;;;;;20.12;84.57;101264.97;7389036;19;20500;-67
2023/09/13 03:36:20;;;;;;;13.20;8.52;;;;;;;20.04;84.58;101255.00;7391619;19;20010;-67
2023/09/13 03:38:48;;;;;;;9.25;5.82;;;;;;;19.94;84.54;101265.06;7389558;19;20018;-67
2023/09/13 03:41:21;;;;;;;9.05;5.15;;;;;;;19.94;83.81;101262.34;7391180;19;20026;-67
2023/09/13 03:43:49;;;;;;;7.85;4.43;;;;;;;19.87;83.30;101266.69;7389145;19;20014;-64
2023/09/13 03:46:17;;;;;;;7.88;4.25;;;;;;;19.82;83.30;101272.56;7391269;19;20363;-70
2023/09/13 03:48:44;;;;;;;7.80;4.28;;;;;;;19.82;83.22;101271.72;7391090;19;20059;-70
2023/09/13 03:51:15;;;;;;;6.70;3.97;;;;;;;19.85;83.17;101268.72;7391119;19;20364;-71
2023/09/13 03:53:43;;;;;;;8.45;4.40;;;;;;;19.80;83.19;101271.03;7390756;19;20022;-71
2023/09/13 03:56:11;;;;;;;7.40;4.13;;;;;;;19.65;83.08;101268.97;7391132;19;20014;-71
2023/09/13 03:58:38;;;;;;;7.85;4.07;;;;;;;19.67;82.80;101266.94;7389002;19;20011;-71
2023/09/13 04:01:06;;;;;;;9.13;4.15;;;;;;;19.67;83.01;101269.63;7391139;19;20374;-71
2023/09/13 04:03:34;;;;;;;8.20;4.40;;;;;;;19.65;82.75;101268.09;7389253;19;20019;-71
2023/09/13 04:06:02;;;;;;;7.80;3.80;;;;;;;19.65;83.08;101271.66;7388243;19;20078;-71
2023/09/13 04:08:29;;;;;;;7.93;3.90;;;;;;;19.66;83.18;101273.31;7390654;19;20035;-71
2023/09/13 04:10:57;;;;;;;6.78;3.58;;;;;;;19.62;82.54;101266.59;7390587;19;20023;-71
2023/09/13 04:13:26;;;;;;;5.57;3.63;;;;;;;19.63;82.52;101278.16;7390662;19;20052;-71
2023/09/13 04:15:53;;;;;;;6.10;3.35;;;;;;;19.58;82.41;101278.63;7386896;19;20086;-71
2023/09/13 04:18:21;;;;;;;5.95;3.47;;;;;;;19.62;82.56;101279.19;7391569;19;20081;-71
2023/09/13 04:20:48;;;;;;;5.97;2.90;;;;;;;19.52;82.06;101278.41;7398375;19;20021;-71
2023/09/13 04:23:16;;;;;;;6.35;3.20;;;;;;;19.53;82.26;101272.84;7397844;19;20093;-71
2023/09/13 04:25:43;;;;;;;5.70;2.78;;;;;;;19.53;81.98;101277.41;7393410;19;20046;-71
2023/09/13 04:28:11;;;;;;;4.70;2.80;;;;;;;19.51;82.07;101279.41;7397818;19;20368;-68
2023/09/13 04:30:38;;;;;;;5.53;2.85;;;;;;;19.46;82.23;101282.59;7397767;19;20026;-69
2023/09/13 04:33:07;;;;;;;5.28;2.75;;;;;;;19.39;82.27;101278.84;7396315;19;20019;-69
2023/09/13 04:35:34;;;;;;;4.85;2.75;;;;;;;19.39;81.70;101281.53;7394266;19;20022;-69
2023/09/13 04:38:02;;;;;;;5.90;2.92;;;;;;;19.38;82.02;101285.19;7396166;19;20487;-69
2023/09/13 04:40:30;;;;;;;4.35;2.70;;;;;;;19.41;82.04;101285.72;7396274;19;20025;-69
2023/09/13 04:43:06;;;;;;;4.22;2.75;;;;;;;19.41;81.45;101283.03;7397270;19;20043;-67
2023/09/13 04:45:34;;;;;;;3.38;2.55;;;;;;;19.37;81.70;101294.25;7394836;19;20380;-64
2023/09/13 04:48:01;;;;;;;6.05;3.13;;;;;;;19.31;81.36;101303.78;7397121;19;20043;-66
2023/09/13 04:50:29;;;;;;;6.90;3.47;;;;;;;19.19;81.59;101313.94;7397696;19;20018;-67
2023/09/13 04:52:56;;;;;;;4.82;2.90;;;;;;;19.15;81.24;101311.69;7395809;19;20035;-67
2023/09/13 04:55:26;;;;;;;6.68;3.63;;;;;;;19.14;81.54;101320.75;7394507;19;20022;-67
2023/09/13 04:57:54;;;;;;;5.47;3.60;;;;;;;19.18;81.05;101325.66;7395675;19;20033;-68
2023/09/13 05:00:25;;;;;;;7.85;4.00;;;;;;;19.19;80.97;101338.13;7396834;19;20511;-56
2023/09/13 05:02:53;;;;;;;6.65;4.18;;;;;;;19.05;80.64;101335.97;7393428;19;20027;-60
2023/09/13 05:05:20;;;;;;;10.40;4.63;;;;;;;19.04;80.55;101339.66;7392825;19;20519;-61
2023/09/13 05:07:48;;;;;;;7.22;3.92;;;;;;;19.04;80.52;101336.09;7395187;19;20047;-57
2023/09/13 05:10:15;;;;;;;7.43;4.50;;;;;;;19.05;80.32;101335.13;7396140;19;20023;-57
2023/09/13 05:12:43;;;;;;;9.95;4.40;;;;;;;19.02;80.20;101336.28;7396216;19;20015;-59
2023/09/13 05:15:10;;;;;;;8.15;4.45;;;;;;;19.00;80.18;101324.81;7396129;19;20018;-59
2023/09/13 05:17:37;;;;;;;9.50;4.05;;;;;;;18.97;80.77;101330.53;7396219;19;20011;-58
2023/09/13 05:20:06;;;;;;;5.80;3.70;;;;;;;18.99;80.50;101341.94;7396016;19;20026;-58
2023/09/13 05:22:33;;;;;;;9.57;3.65;;;;;;;18.98;80.52;101348.31;7396586;19;20055;-60
2023/09/13 05:25:01;;;;;;;7.18;3.40;;;;;;;18.98;80.28;101346.47;7394560;19;20053;-60
2023/09/13 05:27:28;;;;;;;6.28;3.65;;;;;;;18.90;80.02;101351.75;7395838;19;20401;-58
2023/09/13 05:29:56;;;;;;;7.38;3.80;;;;;;;18.91;80.31;101349.91;7392248;19;20388;-59
2023/09/13 05:32:23;;;;;;;5.78;3.40;;;;;;;18.91;79.98;101355.28;7394059;19;20409;-58
2023/09/13 05:34:51;;;;;;;6.95;3.30;;;;;;;18.89;79.63;101352.78;7394028;19;20027;-59
2023/09/13 05:37:18;;;;;;;6.90;3.72;;;;;;;18.80;80.14;101350.97;7396170;19;20478;-59
2023/09/13 05:39:46;;;;;;;8.50;4.07;;;;;;;18.78;79.92;101357.50;7395653;19;20043;-58
2023/09/13 05:42:13;;;;;;;7.40;3.80;;;;;;;18.69;80.31;101349.31;7395805;19;20023;-53
2023/09/13 05:44:41;;;;;;;8.50;4.35;;;;;;;18.64;80.55;101346.25;7393349;19;20101;-57
2023/09/13 05:47:08;;;;;;;7.70;4.30;;;;;;;18.64;80.74;101348.09;7395096;19;20027;-57
2023/09/13 05:49:36;;;;;;;7.93;4.07;;;;;;;18.65;80.47;101345.25;7395523;19;20014;-59
2023/09/13 05:52:03;;;;;;;9.07;4.50;;;;;;;18.66;80.07;101349.66;7394982;19;20024;-56
2023/09/13 05:54:31;;;;;;;6.97;4.10;;;;;;;18.68;79.83;101353.00;7393284;19;20022;-58
2023/09/13 05:56:58;;;;;;;8.70;4.57;;;;;;;18.60;80.25;101354.75;7399308;19;20022;-59
2023/09/13 05:59:26;;;;;;;9.05;4.78;;;;;;;18.57;80.19;101357.75;7392668;19;20026;-59
2023/09/13 06:01:53;;;;;;;9.15;4.60;;;;;;;18.54;80.43;101364.25;7394925;19;20652;-58
2023/09/13 06:04:21;;;;;;;10.95;4.88;;;;;;;18.66;80.28;101370.25;7393250;19;20647;-59
2023/09/13 06:06:48;;;;;;;9.77;4.35;;;;;;;18.67;80.32;101378.16;7395756;19;20029;-59
2023/09/13 06:09:21;;;;;;;9.07;4.22;;;;;;;18.70;80.22;101377.03;7395540;19;20019;-59
2023/09/13 06:11:49;;;;;;;7.53;4.13;;;;;;;18.62;79.79;101375.09;7395064;19;20480;-59
2023/09/13 06:14:18;;;;;;;7.32;4.20;;;;;;;18.67;79.72;101383.53;7395013;19;20047;-56
2023/09/13 06:16:46;;;;;;;7.57;3.60;;;;;;;18.62;79.55;101390.31;7398409;19;20085;-55
2023/09/13 06:19:13;;;;;;;8.50;3.50;;;;;;;18.56;79.35;101386.41;7397810;19;20054;-54
2023/09/13 06:21:41;;;;;;;9.15;3.40;;;;;;;18.49;79.75;101390.69;7397227;19;20018;-59
2023/09/13 06:24:08;;;;;;;5.72;2.90;;;;;;;18.45;78.86;101390.13;7392588;19;20046;-61
2023/09/13 06:26:36;;;;;;;6.50;2.90;;;;;;;18.44;78.96;101401.84;7393598;19;20088;-58
2023/09/13 06:29:03;;;;;;;10.00;2.90;;;;;;;18.41;78.81;101402.16;7393766;19;20018;-58
2023/09/13 06:31:32;;;;;;;5.03;2.60;;;;;;;18.39;77.98;101417.56;7394150;19;20039;-59
2023/09/13 06:34:03;;;;;;;7.30;2.50;;;;;;;18.20;77.83;101425.66;7393940;19;20018;-57
2023/09/13 06:36:33;;;;;;;8.00;2.38;;;;;;;18.15;77.93;101427.94;7394654;19;20030;-58
2023/09/13 06:39:02;;;;;;;9.15;2.10;;;;;;;18.08;77.11;101434.88;7393431;19;20487;-58
2023/09/13 06:41:30;;;;;;;6.97;2.15;;;;;;;17.87;76.42;101433.22;7392480;19;20042;-59
2023/09/13 06:43:58;;;;;;;8.73;2.22;;;;;;;17.81;76.33;101439.16;7392920;19;20027;-59
2023/09/13 06:46:37;;;;;;;8.63;2.25;;;;;;;17.87;76.13;101443.94;7393482;19;20035;-59
2023/09/13 06:49:05;;;;;;;7.47;2.13;;;;;;;17.80;75.70;101450.88;7391280;19;20528;-60
2023/09/13 06:51:34;;;;;;;6.68;1.90;;;;;;;17.85;75.39;101455.78;7392504;19;20029;-59
2023/09/13 06:54:05;;;;;;;8.30;2.25;;;;;;;17.69;75.91;101456.34;7389829;19;20511;-60
2023/09/13 06:56:36;;;;;;;7.32;2.28;;;;;;;17.75;76.06;101464.69;7392874;19;20364;-59
2023/09/13 06:59:07;;;;;;;7.30;2.22;;;;;;;17.68;76.36;101468.88;7391601;19;20043;-59
2023/09/13 07:01:38;;;;;;;7.80;2.20;;;;;;;17.70;76.03;101471.41;7393049;19;20025;-59
2023/09/13 07:04:26;;;;;;;7.82;2.22;;;;;;;17.61;76.02;101478.47;7391409;19;20374;-59
2023/09/13 07:07:03;;;;;;;7.05;2.25;;;;;;;17.68;76.13;101484.13;7392681;19;20038;-59
2023/09/13 07:09:31;;;;;;;6.90;2.15;;;;;;;17.67;75.85;101485.97;7389352;19;20039;-59
2023/09/13 07:11:58;;;;;;;9.57;2.33;;;;;;;17.60;75.37;101494.69;7392709;19;20018;-59
2023/09/13 07:14:26;;;;;;;7.90;2.22;;;;;;;17.61;74.82;101491.03;7389445;19;20043;-59
2023/09/13 07:16:53;;;;;;;7.60;1.80;;;;;;;17.56;74.75;101506.69;7389058;19;20090;-59
2023/09/13 07:19:21;;;;;;;7.90;2.00;;;;;;;17.60;74.35;101505.41;7390680;19;20026;-58
2023/09/13 07:21:49;;;;;;;8.45;2.03;;;;;;;17.58;74.26;101499.34;7392105;19;20370;-59
2023/09/13 07:24:16;;;;;;;9.00;1.90;;;;;;;17.48;73.84;101500.19;7389102;19;20014;-59
2023/09/13 07:26:44;;;;;;;9.25;1.98;;;;;;;17.35;74.42;101501.44;7392313;19;20022;-59
2023/09/13 07:29:11;;;;;;;6.90;1.80;;;;;;;17.38;74.32;101502.00;7391831;19;20074;-58
2023/09/13 07:31:39;;;;;;;7.57;1.90;;;;;;;17.39;73.67;101503.69;7391576;19;20026;-59
2023/09/13 07:34:07;;;;;;;9.15;1.90;;;;;;;17.42;73.91;101513.28;7390769;19;20022;-59
2023/09/13 07:36:34;;;;;;;7.93;2.15;;;;;;;17.34;74.13;101515.81;7391739;19;20014;-59
2023/09/13 07:39:03;;;;;;;7.20;1.75;;;;;;;17.38;74.10;101519.91;7389397;19;20022;-59
2023/09/13 07:41:30;;;;;;;9.23;1.80;;;;;;;17.32;74.04;101528.47;7391785;19;20029;-59
2023/09/13 07:43:58;;;;;;;7.82;1.77;;;;;;;17.36;73.81;101535.25;7390789;19;20019;-59
2023/09/13 07:46:25;;;;;;;8.45;1.80;;;;;;;17.42;73.32;101529.34;7390829;19;20011;-59
2023/09/13 07:48:53;;;;;;;5.05;1.90;;;;;;;17.41;73.81;101535.69;7391392;19;20394;-59
2023/09/13 07:51:20;;;;;;;8.50;1.67;;;;;;;17.47;72.89;101543.16;7391405;19;20054;-60
2023/09/13 07:53:48;;;;;;;10.68;2.05;;;;;;;17.40;72.97;101552.72;7395683;19;20356;-58
2023/09/13 07:56:15;;;;;;;10.13;2.08;;;;;;;17.41;72.76;101557.13;7397068;19;20041;-58
2023/09/13 07:58:43;;;;;;;7.75;2.00;;;;;;;17.45;72.50;101556.69;7397001;19;20022;-59
2023/09/13 08:01:11;;;;;;;5.80;1.63;;;;;;;17.40;71.79;101568.78;7395545;19;20725;-59
2023/09/13 08:03:40;;;;;;;4.57;1.77;;;;;;;17.42;71.93;101562.31;7398628;19;20133;-57
2023/09/13 08:06:10;;;;;;;5.65;1.60;;;;;;;17.37;71.91;101571.78;7398044;19;20418;-60
2023/09/13 08:08:37;;;;;;;7.38;2.05;;;;;;;17.40;71.60;101574.16;7395100;19;20026;-56
2023/09/13 08:11:08;;;;;;;8.00;2.10;;;;;;;17.37;70.77;101567.25;7395998;19;20032;-59
2023/09/13 08:13:38;;;;;;;7.20;1.95;;;;;;;17.33;71.00;101567.69;7396537;19;20033;-58
2023/09/13 08:16:06;;;;;;;8.23;2.22;;;;;;;17.36;71.43;101567.38;7393371;19;20085;-55
2023/09/13 08:18:34;;;;;;;6.40;1.65;;;;;;;17.39;70.23;101570.63;7395735;19;20026;-59
2023/09/13 08:21:03;;;;;;;7.35;2.28;;;;;;;17.45;69.84;101572.75;7395509;19;20030;-59
2023/09/13 08:23:31;;;;;;;7.45;2.22;;;;;;;17.51;69.51;101585.63;7398003;19;20483;-59
2023/09/13 08:25:58;;;;;;;9.25;2.03;;;;;;;17.58;68.71;101599.28;7392709;19;20022;-58
2023/09/13 08:28:46;;;;;;;5.28;1.70;;;;;;;17.61;69.51;101599.00;7397624;19;20100;-59
2023/09/13 08:31:14;;;;;;;7.40;1.67;;;;;;;17.68;70.22;101600.16;7397925;19;20014;-59
2023/09/13 08:33:42;;;;;;;5.63;1.70;;;;;;;17.68;70.05;101605.53;7397110;19;20530;-59
2023/09/13 08:36:09;;;;;;;6.28;1.60;;;;;;;17.54;70.22;101609.44;7395187;19;20366;-59
2023/09/13 08:38:37;;;;;;;5.55;1.70;;;;;;;17.67;70.38;101627.09;7396670;19;20120;-59
2023/09/13 08:41:04;;;;;;;7.60;1.92;;;;;;;17.71;70.06;101633.88;7397190;19;20090;-58
2023/09/13 08:43:32;;;;;;;6.18;2.00;;;;;;;17.82;69.91;101639.16;7397159;19;20023;-58
2023/09/13 08:46:01;;;;;;;8.30;1.85;;;;;;;17.73;70.87;101632.72;7392853;19;20019;-58
2023/09/13 08:48:31;;;;;;;6.95;2.10;;;;;;;17.86;70.96;101635.19;7396842;19;20023;-59
2023/09/13 08:51:02;;;;;;;6.47;1.98;;;;;;;17.92;70.56;101639.16;7396789;19;20101;-58
2023/09/13 08:53:32;;;;;;;8.00;2.17;;;;;;;18.10;69.90;101642.84;7395538;19;20052;-59
2023/09/13 08:56:00;;;;;;;7.97;2.28;;;;;;;18.21;70.19;101652.59;7393783;19;20041;-59
2023/09/13 08:58:28;;;;;;;7.43;1.83;;;;;;;18.23;70.31;101656.78;7394631;19;20085;-61
2023/09/13 09:00:59;;;;;;;8.13;1.70;;;;;;;18.30;70.24;101661.59;7396450;19;20043;-59
2023/09/13 09:03:27;;;;;;;8.55;2.08;;;;;;;18.34;70.68;101660.34;7395701;19;20022;-59
2023/09/13 09:05:56;;;;;;;6.93;2.00;;;;;;;18.34;70.72;101658.50;7393485;19;20019;-59
2023/09/13 09:08:25;;;;;;;9.65;2.10;;;;;;;18.33;70.57;101667.53;7396238;19;20359;-59
2023/09/13 09:10:57;;;;;;;10.30;2.40;;;;;;;18.29;70.08;101667.97;7396013;19;20021;-59
2023/09/13 09:13:25;;;;;;;7.40;1.70;;;;;;;18.23;69.71;101672.88;7394595;19;20497;-58
2023/09/13 09:15:56;;;;;;;9.25;1.90;;;;;;;18.26;69.33;101679.81;7393530;19;20017;-60
2023/09/13 09:18:25;;;;;;;9.02;2.30;;;;;;;18.32;69.18;101683.78;7396658;19;20298;-58
2023/09/13 09:20:54;;;;;;;6.50;1.52;;;;;;;18.34;69.19;101673.75;7397671;19;20018;-59
2023/09/13 09:23:23;;;;;;;8.63;1.90;;;;;;;18.43;68.63;101675.56;7396831;19;20018;-60
2023/09/13 09:25:51;;;;;;;8.57;1.70;;;;;;;18.35;68.24;101672.75;7393877;19;20030;-59
2023/09/13 09:28:20;;;;;;;10.32;2.22;;;;;;;18.27;68.30;101674.28;7396284;19;20085;-59
2023/09/13 09:30:51;;;;;;;10.23;1.77;;;;;;;18.26;68.93;101683.34;7395947;19;20020;-59
2023/09/13 09:33:30;;;;;;;7.60;1.60;;;;;;;18.26;68.11;101677.13;7396113;19;20446;-57
2023/09/13 09:35:59;;;;;;;8.93;1.90;;;;;;;18.21;67.01;101684.75;7392666;19;20015;-55
2023/09/13 09:38:29;;;;;;;5.85;1.45;;;;;;;18.21;67.25;101680.25;7393855;19;20097;-59
2023/09/13 09:41:02;;;;;;;8.00;1.65;;;;;;;18.23;66.38;101682.75;7394697;19;20031;-59
2023/09/13 09:43:30;;;;;;;8.03;1.87;;;;;;;18.04;66.00;101691.63;7395283;19;20014;-60
2023/09/13 09:45:58;;;;;;;8.45;1.80;;;;;;;18.05;64.53;101698.72;7392281;19;20018;-60
2023/09/13 09:48:28;;;;;;;6.93;1.80;;;;;;;18.03;65.28;101698.00;7394684;19;20022;-60
2023/09/13 09:50:57;;;;;;;4.13;1.55;;;;;;;18.09;65.55;101697.44;7394764;19;20015;-59
2023/09/13 09:53:25;;;;;;;9.43;1.83;;;;;;;18.16;65.41;101701.28;7393040;19;20097;-59
2023/09/13 09:55:53;;;;;;;6.70;1.73;;;;;;;18.16;65.07;101700.41;7392287;19;20014;-60
2023/09/13 09:58:22;;;;;;;6.32;1.50;;;;;;;18.22;64.91;101684.59;7393508;19;20381;-59
2023/09/13 10:00:51;;;;;;;9.10;2.10;;;;;;;18.24;65.01;101674.59;7392820;19;20019;-59
2023/09/13 10:03:21;;;;;;;8.13;1.50;;;;;;;18.15;64.82;101664.69;7394765;19;20014;-59
2023/09/13 10:05:59;;;;;;;7.18;1.77;;;;;;;18.23;64.75;101672.88;7391781;19;20377;-58
2023/09/13 10:08:45;;;;;;;6.88;1.63;;;;;;;18.32;65.41;101689.16;7394432;19;20363;-58
2023/09/13 10:11:21;;;;;;;6.75;1.48;;;;;;;18.32;65.97;101702.56;7393058;19;20505;-59
2023/09/13 10:13:49;;;;;;;7.47;1.42;;;;;;;18.25;66.21;101702.25;7391883;19;20014;-59
2023/09/13 10:16:18;;;;;;;9.52;1.70;;;;;;;18.14;66.58;101716.63;7390405;19;20039;-59
2023/09/13 10:18:48;;;;;;;9.02;2.05;;;;;;;18.06;67.11;101711.13;7393929;19;20018;-57
2023/09/13 10:21:28;;;;;;;6.30;1.52;;;;;;;18.15;67.27;101720.16;7392943;19;20014;-58
2023/09/13 10:24:06;;;;;;;7.53;2.10;;;;;;;18.16;67.64;101712.00;7394794;19;20017;-59
2023/09/13 10:26:35;;;;;;;7.35;1.85;;;;;;;18.16;67.37;101712.00;7395506;19;20401;-57
2023/09/13 10:29:17;;;;;;;6.38;1.85;;;;;;;18.35;67.26;101716.50;7393658;19;20032;-60
2023/09/13 10:31:48;;;;;;;9.32;1.77;;;;;;;18.33;67.62;101715.81;7392083;19;20495;-60
2023/09/13 10:34:23;;;;;;;6.40;1.77;;;;;;;18.45;67.29;101720.03;7392996;19;20086;-59
2023/09/13 10:37:02;;;;;;;6.15;1.65;;;;;;;18.41;67.71;101717.78;7393849;19;20029;-59
2023/09/13 10:39:34;;;;;;;6.45;1.60;;;;;;;18.45;67.69;101712.00;7392846;19;20057;-60
2023/09/13 10:42:07;;;;;;;7.13;1.50;;;;;;;18.67;66.73;101718.09;7394819;19;20086;-60
2023/09/13 10:44:38;;;;;;;6.65;1.52;;;;;;;18.67;66.35;101720.75;7391253;19;20337;-58
2023/09/13 10:47:07;;;;;;;6.60;1.80;;;;;;;18.57;65.44;101739.53;7392981;19;20508;-58
2023/09/13 10:49:40;;;;;;;7.13;1.60;;;;;;;18.33;65.65;101739.09;7391348;19;20011;-60
2023/09/13 10:52:11;;;;;;;10.57;1.90;;;;;;;18.33;64.84;101744.47;7390995;19;20503;-58
2023/09/13 10:54:39;;;;;;;5.20;1.52;;;;;;;18.29;64.19;101729.66;7390330;19;20053;-60
2023/09/13 10:57:09;;;;;;;6.57;1.90;;;;;;;18.09;64.14;101712.69;7392354;19;20071;-57
2023/09/13 10:59:38;;;;;;;5.50;1.63;;;;;;;17.94;64.28;101745.25;7392932;19;20040;-57
2023/09/13 11:02:07;;;;;;;6.82;1.60;;;;;;;18.02;64.14;101761.47;7394299;19;20458;-58
2023/09/13 11:04:35;;;;;;;4.70;1.60;;;;;;;17.98;64.31;101768.09;7391966;19;20019;-60
2023/09/13 11:07:04;;;;;;;8.65;2.00;;;;;;;18.01;63.86;101780.41;7391197;19;20023;-61
2023/09/13 11:09:33;;;;;;;6.68;1.83;;;;;;;17.91;63.21;101792.91;7392529;19;20078;-60
2023/09/13 11:12:02;;;;;;;5.90;1.90;;;;;;;17.99;62.11;101799.28;7392459;19;20019;-58
2023/09/13 11:14:31;;;;;;;6.47;2.05;;;;;;;17.99;61.68;101809.16;7391121;19;20122;-58
2023/09/13 11:17:38;;;;;;;5.35;2.00;;;;;;;18.14;59.86;101813.16;7392182;19;20018;-59
2023/09/13 11:20:27;;;;;;;4.97;1.80;;;;;;;18.29;59.38;101820.81;7388882;19;20375;-59
2023/09/13 11:23:12;;;;;;;4.00;1.85;;;;;;;18.29;59.97;101820.81;7392027;19;20037;-57
2023/09/13 11:25:48;;;;;;;6.30;1.85;;;;;;;18.39;60.23;101813.63;7389920;19;20015;-58
2023/09/13 11:28:34;;;;;;;6.55;1.80;;;;;;;18.41;58.63;101820.56;7391673;19;20030;-57
2023/09/13 11:31:03;;;;;;;5.93;1.70;;;;;;;18.39;59.43;101829.72;7391865;19;20010;-57